Flight Track Log - Related Links

Times and Time Zones

All times are in EDT time to prevent confusion due to time zone crossing. See the UAL109 flight status page for this flight to view local times or setup timezone preferences in your user account.

Time Position Orientation Groundspeed Altitude Reporting Facility
EDT Latitude Longitude Course Direction KTS MPH feet Rate Location/Type
Thu 07:07:52 AM 55.9520 -3.3670 48° Northeast 10 12 200  Level FlightAware ADS-B
Thu 07:08:20 AM 55.9530 -3.3640 59° Northeast 10 12 200 12 Level FlightAware ADS-B
Thu 07:11:00 AM 55.9863 -3.8670 276° West  Level FlightAware Approximate
Thu 07:12:00 AM 55.9976 -4.0587 276° West  Level FlightAware Approximate
Thu 07:13:00 AM 56.0215 -4.2455 278° West  Level FlightAware Approximate
Thu 07:14:00 AM 56.0333 -4.4370 270° West  Level FlightAware Approximate
Thu 07:16:07 AM 55.9550 -3.3720 246° West 138 159 300  Level FlightAware ADS-B
Thu 07:16:41 AM 55.9410 -3.4120 238° Southwest 159 183 1,900 2,625 Climbing FlightAware ADS-B
Thu 07:17:11 AM 55.9280 -3.4480 237° Southwest 156 180 3,100 2,491 Climbing FlightAware ADS-B
Thu 07:17:34 AM 55.9170 -3.4820 240° Southwest 175 201 4,100 2,111 Climbing FlightAware ADS-B
Thu 07:18:05 AM 55.9060 -3.5350 250° West 214 246 5,000 2,182 Climbing FlightAware ADS-B
Thu 07:18:29 AM 55.9020 -3.5770 260° West 219 252 6,100 2,222 Climbing FlightAware ADS-B
Thu 07:18:59 AM 55.8960 -3.6350 260° West 241 277 7,000 2,300 Climbing FlightAware ADS-B
Thu 07:19:29 AM 55.8910 -3.6930 261° West 242 278 8,400 2,900 Climbing FlightAware ADS-B
Thu 07:19:59 AM 55.8850 -3.7550 260° West 245 282 9,900 2,229 Climbing FlightAware ADS-B
Thu 07:20:39 AM 55.8770 -3.8350 260° West 274 315 11,000 1,275 Climbing FlightAware ADS-B
Thu 07:21:19 AM 55.8660 -3.9350 260° West 315 362 11,600 857 Climbing FlightAware ADS-B
Thu 07:21:21 AM 55.8612 -3.9360 260° West 364 419 11,600 1,200 Level FlightAware UK
Thu 07:21:54 AM 55.8510 -4.0250 253° West 343 395 12,300 1,846 Climbing FlightAware ADS-B
Thu 07:22:39 AM 55.8228 -4.1443 253° West 406 467 14,000 2,400 Climbing FlightAware UK
Thu 07:22:39 AM 55.8270 -4.1500 253° West 353 406 14,100 2,333 Climbing FlightAware ADS-B
Thu 07:23:15 AM 55.8026 -4.2431 253° West 414 476 15,400 2,100 Climbing FlightAware UK
Thu 07:23:19 AM 55.8050 -4.2590 253° West 360 414 15,500 2,000 Climbing FlightAware ADS-B
Thu 07:23:51 AM 55.7821 -4.3441 253° West 418 481 16,600 2,049 Climbing FlightAware UK
Thu 07:24:00 AM 55.7820 -4.3720 253° West 368 423 16,900 1,959 Climbing FlightAware ADS-B
Thu 07:24:40 AM 55.7600 -4.4780 250° West 378 435 18,200 2,025 Climbing FlightAware ADS-B
Thu 07:25:20 AM 55.7340 -4.6080 250° West 385 443 19,600 2,043 Climbing FlightAware ADS-B
Thu 07:25:27 AM 55.7264 -4.6215 250° West 446 513 19,800 1,622 Climbing FlightAware UK
Thu 07:25:57 AM 55.7084 -4.7108 250° West 450 518 20,600 1,692 Climbing FlightAware UK
Thu 07:26:06 AM 55.7070 -4.7450 250° West 391 450 20,900 1,814 Climbing FlightAware ADS-B
Thu 07:26:40 AM 55.6860 -4.8460 250° West 396 456 21,900 1,671 Climbing FlightAware ADS-B
Thu 07:27:25 AM 55.6570 -4.9850 250° West 401 461 23,100 1,535 Climbing FlightAware ADS-B
Thu 07:28:06 AM 55.6310 -5.1120 250° West 403 464 24,100 1,407 Climbing FlightAware ADS-B
Thu 07:28:46 AM 55.6050 -5.2380 250° West 411 473 25,000 635 Climbing FlightAware ADS-B
Thu 07:29:31 AM 55.5760 -5.3780 250° West 409 471 25,000  Level FlightAware ADS-B
Thu 07:29:33 AM 55.5720 -5.3738 250° West 478 550 25,000  Level FlightAware UK
Thu 07:30:03 AM 55.5524 -5.4661 250° West 474 545 25,000  Level FlightAware UK
Thu 07:30:12 AM 55.5490 -5.5040 250° West 403 464 25,000 471 Level FlightAware ADS-B
Thu 07:30:54 AM 55.5220 -5.6300 249° West 408 470 25,400 889 Climbing FlightAware ADS-B
Thu 07:31:33 AM 55.4933 -5.7434 249° West 484 557 26,200 1,200 Climbing FlightAware UK
Thu 07:31:39 AM 55.4910 -5.7740 249° West 415 478 26,300 1,696 Climbing FlightAware ADS-B
Thu 07:32:19 AM 55.4640 -5.8990 249° West 411 473 27,500 1,704 Climbing FlightAware ADS-B
Thu 07:33:00 AM 55.4370 -6.0260 249° West 408 470 28,600 1,636 Climbing FlightAware ADS-B
Thu 07:33:03 AM 55.4333 -6.0236 249° West 476 548 28,700 1,455 Climbing FlightAware UK
Thu 07:33:33 AM 55.4133 -6.1155 249° West 476 548 29,400 1,459 Climbing FlightAware UK
Thu 07:33:40 AM 55.4090 -6.1550 249° West 404 465 29,600 1,250 Climbing FlightAware ADS-B
Thu 07:34:21 AM 55.3820 -6.2780 249° West 405 466 30,400 1,395 Climbing FlightAware ADS-B
Thu 07:35:06 AM 55.3520 -6.4140 249° West 398 458 31,600 1,500 Climbing FlightAware ADS-B
Thu 07:35:09 AM 55.3498 -6.4050 249° West 470 541 31,600 1,273 Level FlightAware UK
Thu 07:35:39 AM 55.3304 -6.4940 249° West 468 539 32,300 1,385 Climbing FlightAware UK
Thu 07:35:48 AM 55.3250 -6.5350 249° West 396 456 32,500 1,200 Climbing FlightAware ADS-B
Thu 07:36:29 AM 55.2970 -6.6590 248° West 395 455 33,300 1,037 Climbing FlightAware ADS-B
Thu 07:37:09 AM 55.2710 -6.7598 248° West 462 532 33,900 792 Climbing FlightAware UK
Thu 07:37:22 AM 55.2610 -6.8200 248° West 399 459 34,000 113 Climbing FlightAware ADS-B
Thu 07:38:02 AM 55.2340 -6.9390 248° West 403 464 34,000  Level FlightAware ADS-B
Thu 07:38:09 AM 55.2303 -6.9399 248° West 470 541 34,000  Level FlightAware UK
Thu 07:38:39 AM 55.2099 -7.0305 248° West 470 541 34,000  Level FlightAware UK
Thu 07:38:55 AM 55.1970 -7.0990 248° West 403 464 34,000  Level FlightAware ADS-B
Thu 07:39:39 AM 55.1689 -7.2103 248° West 466 536 34,000  Level FlightAware UK
Thu 07:39:40 AM 55.1660 -7.2330 248° West 402 463 34,000  Level FlightAware ADS-B
Thu 07:40:19 AM 55.1390 -7.3510 248° West 399 459 34,000  Level FlightAware ADS-B
Thu 07:40:54 AM 55.1140 -7.4580 248° West 396 456 34,000  Level FlightAware ADS-B
Thu 07:41:39 AM 55.0830 -7.5900 248° West 397 457 34,000  Level FlightAware ADS-B
Thu 07:42:14 AM 55.0619 -7.6723 248° West 462 532 34,000  Level FlightAware UK
Thu 07:42:20 AM 55.0550 -7.7100 248° West 397 457 34,000  Level FlightAware ADS-B
Thu 07:43:04 AM 55.0230 -7.8440 247° West 396 456 34,000  Level FlightAware ADS-B
Thu 07:43:44 AM 54.9987 -7.9380 247° West 464 534 34,000  Level FlightAware UK
Thu 07:43:44 AM 54.9940 -7.9640 247° West 397 457 34,000  Level FlightAware ADS-B
Thu 07:44:14 AM 54.9772 -8.0263 247° West 462 532 34,000  Level FlightAware UK
Thu 07:44:24 AM 54.9650 -8.0810 247° West 397 457 34,000  Level FlightAware ADS-B
Thu 07:45:14 AM 54.9342 -8.2030 247° West 464 534 34,000  Level FlightAware UK
Thu 07:45:24 AM 54.9220 -8.2570 247° West 398 458 34,000  Level FlightAware ADS-B
Thu 07:46:05 AM 54.8920 -8.3770 247° West 401 461 34,000  Level FlightAware ADS-B
Thu 07:46:39 AM 54.8670 -8.4780 247° West 401 461 34,000  Level FlightAware ADS-B
Thu 07:47:14 AM 54.8473 -8.5559 247° West 470 541 34,000  Level FlightAware UK
Thu 07:47:44 AM 54.8190 -8.6690 247° West 400 460 34,000  Level FlightAware ADS-B
Thu 07:48:20 AM 54.7993 -8.7483 247° West 468 539 34,000  Level FlightAware UK
Thu 07:48:25 AM 54.7890 -8.7880 247° West 398 458 34,000  Level FlightAware ADS-B
Thu 07:49:09 AM 54.7570 -8.9170 247° West 398 458 34,000  Level FlightAware ADS-B
Thu 07:49:49 AM 54.7280 -9.0310 247° West 396 456 34,000  Level FlightAware ADS-B
Thu 07:49:50 AM 54.7337 -9.0090 247° West 468 539 34,000  Level FlightAware UK
Thu 07:50:34 AM 54.6940 -9.1630 246° West 396 456 34,000  Level FlightAware ADS-B
Thu 07:51:14 AM 54.6640 -9.2770 246° West 395 455 34,000  Level FlightAware ADS-B
Thu 07:51:49 AM 54.6380 -9.3790 246° West 394 453 34,000  Level FlightAware ADS-B
Thu 07:52:31 AM 54.6080 -9.4960 246° West 394 453 34,000  Level FlightAware ADS-B
Thu 07:53:19 AM 54.5710 -9.6360 246° West 392 451 34,000  Level FlightAware ADS-B
Thu 07:53:59 AM 54.5410 -9.7490 245° Southwest 392 451 34,000  Level FlightAware ADS-B
Thu 07:54:45 AM 54.5070 -9.8790 246° West 392 451 34,000  Level FlightAware ADS-B
Thu 07:55:24 AM 54.4780 -9.9900 246° West 391 450 34,000  Level FlightAware ADS-B
Thu 07:56:04 AM 54.4480 -10.1010 245° Southwest 391 450 34,000  Level FlightAware ADS-B
Thu 07:56:50 AM 54.4130 -10.2310 245° Southwest 391 450 34,000  Level FlightAware ADS-B
Thu 07:57:29 AM 54.3840 -10.3410 246° West 391 450 34,000  Level FlightAware ADS-B
Thu 07:58:14 AM 54.3490 -10.4680 245° Southwest 390 449 34,000  Level FlightAware ADS-B
Thu 07:58:54 AM 54.3180 -10.5810 245° Southwest 389 448 34,000  Level FlightAware ADS-B
Thu 07:59:30 AM 54.2920 -10.6790 246° West 388 447 34,000  Level FlightAware ADS-B
Thu 08:00:15 AM 54.2570 -10.8040 244° Southwest 387 445 34,000  Level FlightAware ADS-B
Thu 08:00:54 AM 54.2270 -10.9130 245° Southwest 388 447 34,000  Level FlightAware ADS-B
Thu 08:01:30 AM 54.2000 -11.0120 245° Southwest 387 445 34,000  Level FlightAware ADS-B
Thu 08:02:09 AM 54.1700 -11.1210 245° Southwest 387 445 34,000  Level FlightAware ADS-B
Thu 08:02:55 AM 54.1350 -11.2430 244° Southwest 384 442 34,000  Level FlightAware ADS-B
Thu 08:03:34 AM 54.1040 -11.3540 245° Southwest 384 442 34,000  Level FlightAware ADS-B
Thu 08:04:29 AM 54.0620 -11.5050 245° Southwest 386 444 34,000  Level FlightAware ADS-B
Thu 08:05:25 AM 54.0200 -11.6530 244° Southwest 386 444 34,000  Level FlightAware ADS-B
Thu 08:06:50 AM 53.9630 -11.8510 244° Southwest 387 445 34,000  Level FlightAware ADS-B
Thu 08:07:31 AM 53.9280 -11.9740 244° Southwest 387 445 34,000  Level FlightAware ADS-B
Thu 08:08:09 AM 53.9040 -12.0630 245° Southwest 387 445 34,000  Level FlightAware ADS-B
Thu 08:08:56 AM 53.8720 -12.1720 244° Southwest 387 445 34,000  Level FlightAware ADS-B
Thu 08:09:40 AM 53.8320 -12.3060 243° Southwest 387 445 34,000  Level FlightAware ADS-B
Thu 08:11:33 AM 53.7370 -12.6290 244° Southwest 392 451 34,000  Level FlightAware ADS-B
Thu 08:13:02 AM 53.6670 -12.8610 243° Southwest 392 451 34,000  Level FlightAware ADS-B
Thu 08:13:47 AM 53.6250 -13.0060 244° Southwest 391 450 34,000  Level FlightAware ADS-B
Thu 08:14:24 AM 53.5960 -13.1010 243° Southwest 390 449 34,000  Level FlightAware ADS-B
Thu 08:14:52 AM 53.5770 -13.1650 243° Southwest 390 449 34,000  Level FlightAware ADS-B
Thu 08:15:38 AM 53.5450 -13.2710 243° Southwest 390 449 34,000  Level FlightAware ADS-B
Thu 08:16:21 AM 53.4910 -13.4470 243° Southwest 388 447 34,000  Level FlightAware ADS-B
Thu 08:17:05 AM 53.4550 -13.5660 243° Southwest 387 445 34,000  Level FlightAware ADS-B
Thu 08:17:45 AM 53.4230 -13.6710 243° Southwest 388 447 34,000  Level FlightAware ADS-B
Thu 08:18:31 AM 53.3860 -13.7900 243° Southwest 387 445 34,000  Level FlightAware ADS-B
Thu 08:19:25 AM 53.3440 -13.9250 243° Southwest 386 444 34,000  Level FlightAware ADS-B
Thu 08:20:41 AM 53.2860 -14.1100 242° Southwest 386 444 34,000  Level FlightAware ADS-B
Thu 08:21:18 AM 53.2600 -14.1930 242° Southwest 386 444 34,000  Level FlightAware ADS-B
Thu 08:21:54 AM 53.2340 -14.2730 242° Southwest 386 444 34,000  Level FlightAware ADS-B
Thu 08:22:42 AM 53.2000 -14.3810 242° Southwest 386 444 34,000  Level FlightAware ADS-B
Thu 08:23:18 AM 53.1740 -14.4610 242° Southwest 386 444 34,000  Level FlightAware ADS-B
Thu 08:24:06 AM 53.1400 -14.5690 242° Southwest 386 444 34,000  Level FlightAware ADS-B
Thu 08:25:06 AM 53.0970 -14.7030 242° Southwest 386 444 34,000  Level FlightAware ADS-B
Thu 08:25:42 AM 53.0710 -14.7830 242° Southwest 386 444 34,000  Level FlightAware ADS-B
Thu 08:26:29 AM 53.0380 -14.8880 242° Southwest 386 444 34,000  Level FlightAware ADS-B
Thu 08:27:05 AM 53.0120 -14.9680 242° Southwest 386 444 34,000  Level FlightAware ADS-B
Thu 08:27:53 AM 52.9780 -15.0750 242° Southwest 386 444 34,000  Level FlightAware ADS-B
Thu 08:28:29 AM 52.9520 -15.1550 242° Southwest 386 444 34,000  Level FlightAware ADS-B
Thu 08:29:17 AM 52.9180 -15.2620 242° Southwest 386 444 34,000  Level FlightAware ADS-B
Thu 08:29:53 AM 52.8920 -15.3420 242° Southwest 386 444 34,000  Level FlightAware ADS-B
Thu 08:32:00 AM 52.9201 -15.7269 277° West  Level Estimated
Thu 08:33:00 AM 52.9330 -15.9089 277° West  Level Estimated
Thu 08:34:00 AM 52.9456 -16.0911 277° West  Level Estimated
Thu 08:35:00 AM 52.9579 -16.2733 276° West  Level Estimated
Thu 08:36:00 AM 52.9699 -16.4557 276° West  Level Estimated
Thu 08:37:00 AM 52.9816 -16.6381 276° West  Level Estimated
Thu 08:38:00 AM 52.9931 -16.8206 276° West  Level Estimated
Thu 08:39:00 AM 53.0043 -17.0033 276° West  Level Estimated
Thu 08:40:00 AM 53.0152 -17.1860 276° West  Level Estimated
Thu 08:41:00 AM 53.0258 -17.3688 276° West  Level Estimated
Thu 08:42:00 AM 53.0361 -17.5517 275° West  Level Estimated
Thu 08:43:00 AM 53.0462 -17.7347 275° West  Level Estimated
Thu 08:44:00 AM 53.0563 -17.9234 275° West  Level Estimated
Thu 08:45:00 AM 53.0660 -18.1121 275° West  Level Estimated
Thu 08:46:00 AM 53.0755 -18.3010 275° West  Level Estimated
Thu 08:47:00 AM 53.0847 -18.4899 275° West  Level Estimated
Thu 08:48:00 AM 53.0936 -18.6789 275° West  Level Estimated
Thu 08:49:00 AM 53.1021 -18.8680 274° West  Level Estimated
Thu 08:50:00 AM 53.1104 -19.0571 274° West  Level Estimated
Thu 08:51:00 AM 53.1184 -19.2463 274° West  Level Estimated
Thu 08:52:00 AM 53.1261 -19.4356 274° West  Level Estimated
Thu 08:53:00 AM 53.1335 -19.6250 274° West  Level Estimated
Thu 08:53:31 AM 53.0000 -20.0000 265° West 403 464 34,000  Level ETMS Enhanced Traffic Management System
Thu 08:54:00 AM 53.1405 -19.8144 274° West  Level Estimated
Thu 08:55:00 AM 53.1473 -20.0039 273° West  Level Estimated
Thu 08:56:00 AM 53.1538 -20.1934 273° West  Level Estimated
Thu 08:57:00 AM 53.1600 -20.3830 273° West  Level Estimated
Thu 08:58:00 AM 53.1659 -20.5726 273° West  Level Estimated
Thu 08:59:00 AM 52.9323 -21.1108 264° West 403 464 34,000  Level FlightAware Transoceanic
Thu 09:00:00 AM 52.9200 -21.2956 264° West 403 464 34,000  Level FlightAware Transoceanic
Thu 09:01:00 AM 52.9074 -21.4803 263° West 403 464 34,000  Level FlightAware Transoceanic
Thu 09:02:00 AM 52.8946 -21.6648 263° West 403 464 34,000  Level FlightAware Transoceanic
Thu 09:03:00 AM 52.8814 -21.8493 263° West 403 464 34,000  Level FlightAware Transoceanic
Thu 09:04:00 AM 52.8680 -22.0336 263° West 403 464 34,000  Level FlightAware Transoceanic
Thu 09:05:00 AM 52.8543 -22.2179 263° West 403 464 34,000  Level FlightAware Transoceanic
Thu 09:06:00 AM 52.8403 -22.4020 263° West 403 464 34,000  Level FlightAware Transoceanic
Thu 09:07:00 AM 52.8260 -22.5860 263° West 403 464 34,000  Level FlightAware Transoceanic
Thu 09:08:00 AM 52.8114 -22.7698 262° West 403 464 34,000  Level FlightAware Transoceanic
Thu 09:09:00 AM 52.7966 -22.9536 262° West 403 464 34,000  Level FlightAware Transoceanic
Thu 09:10:00 AM 52.7814 -23.1372 262° West 403 464 34,000  Level FlightAware Transoceanic
Thu 09:11:00 AM 52.7660 -23.3207 262° West 403 464 34,000  Level FlightAware Transoceanic
Thu 09:12:00 AM 52.7503 -23.5041 262° West 403 464 34,000  Level FlightAware Transoceanic
Thu 09:13:00 AM 52.7343 -23.6873 262° West 403 464 34,000  Level FlightAware Transoceanic
Thu 09:14:00 AM 52.7180 -23.8704 262° West 403 464 34,000  Level FlightAware Transoceanic
Thu 09:15:00 AM 52.7015 -24.0533 261° West 403 464 34,000  Level FlightAware Transoceanic
Thu 09:16:00 AM 52.6847 -24.2361 261° West 403 464 34,000  Level FlightAware Transoceanic
Thu 09:17:00 AM 52.6675 -24.4188 261° West 403 464 34,000  Level FlightAware Transoceanic
Thu 09:18:00 AM 52.6502 -24.6013 261° West 403 464 34,000  Level FlightAware Transoceanic
Thu 09:19:00 AM 52.6325 -24.7837 261° West 403 464 34,000  Level FlightAware Transoceanic
Thu 09:20:00 AM 52.6145 -24.9660 261° West 403 464 34,000  Level FlightAware Transoceanic
Thu 09:21:00 AM 52.5963 -25.1480 261° West 403 464 34,000  Level FlightAware Transoceanic
Thu 09:22:00 AM 52.5778 -25.3300 260° West 403 464 34,000  Level FlightAware Transoceanic
Thu 09:23:00 AM 52.5590 -25.5117 260° West 403 464 34,000  Level FlightAware Transoceanic
Thu 09:24:00 AM 52.5399 -25.6933 260° West 403 464 34,000  Level FlightAware Transoceanic
Thu 09:25:00 AM 52.5206 -25.8748 260° West 403 464 34,000  Level FlightAware Transoceanic
Thu 09:26:00 AM 52.5009 -26.0561 260° West 403 464 34,000  Level FlightAware Transoceanic
Thu 09:27:00 AM 52.4810 -26.2372 260° West 403 464 34,000  Level FlightAware Transoceanic
Thu 09:28:00 AM 52.4609 -26.4182 260° West 403 464 34,000  Level FlightAware Transoceanic
Thu 09:29:00 AM 52.4404 -26.5990 259° West 403 464 34,000  Level FlightAware Transoceanic
Thu 09:30:00 AM 52.4197 -26.7796 259° West 403 464 34,000  Level FlightAware Transoceanic
Thu 09:31:00 AM 52.3987 -26.9601 259° West 403 464 34,000  Level FlightAware Transoceanic
Thu 09:32:00 AM 52.3774 -27.1404 259° West 403 464 34,000  Level FlightAware Transoceanic
Thu 09:33:00 AM 52.3558 -27.3205 259° West 403 464 34,000  Level FlightAware Transoceanic
Thu 09:34:00 AM 52.3340 -27.5005 259° West 403 464 34,000  Level FlightAware Transoceanic
Thu 09:35:00 AM 52.3119 -27.6802 259° West 403 464 34,000  Level FlightAware Transoceanic
Thu 09:36:00 AM 52.2895 -27.8598 258° West 403 464 34,000  Level FlightAware Transoceanic
Thu 09:37:00 AM 52.2669 -28.0392 258° West 403 464 34,000  Level FlightAware Transoceanic
Thu 09:38:00 AM 52.2440 -28.2184 258° West 403 464 34,000  Level FlightAware Transoceanic
Thu 09:39:00 AM 52.2208 -28.3974 258° West 403 464 34,000  Level FlightAware Transoceanic
Thu 09:40:00 AM 52.1973 -28.5763 258° West 403 464 34,000  Level FlightAware Transoceanic
Thu 09:41:00 AM 52.1736 -28.7549 258° West 403 464 34,000  Level FlightAware Transoceanic
Thu 09:42:00 AM 52.1496 -28.9334 258° West 403 464 34,000  Level FlightAware Transoceanic
Thu 09:43:00 AM 52.1254 -29.1116 257° West 403 464 34,000  Level FlightAware Transoceanic
Thu 09:44:00 AM 52.1008 -29.2897 257° West 403 464 34,000  Level FlightAware Transoceanic
Thu 09:45:00 AM 52.0760 -29.4676 257° West 403 464 34,000  Level FlightAware Transoceanic
Thu 09:46:00 AM 52.0509 -29.6453 257° West 403 464 34,000  Level FlightAware Transoceanic
Thu 09:47:00 AM 52.0256 -29.8227 257° West 403 464 34,000 16 Level FlightAware Transoceanic
Thu 09:48:00 AM 51.9996 -30.0028 257° West  Level FlightAware Approximate
Thu 09:49:00 AM 51.9997 -30.0058 265° West  Level FlightAware Approximate
Thu 09:50:00 AM 51.9892 -30.1899 265° West  Level FlightAware Approximate
Thu 09:51:00 AM 51.9785 -30.3739 265° West  Level FlightAware Approximate
Thu 09:52:00 AM 51.9675 -30.5579 265° West  Level FlightAware Approximate
Thu 09:53:00 AM 51.9562 -30.7417 264° West  Level FlightAware Approximate
Thu 09:54:00 AM 51.9446 -30.9255 264° West  Level FlightAware Approximate
Thu 09:55:00 AM 51.9327 -31.1092 264° West  Level FlightAware Approximate
Thu 09:56:00 AM 51.9206 -31.2927 264° West  Level FlightAware Approximate
Thu 09:57:00 AM 51.9081 -31.4762 264° West  Level FlightAware Approximate
Thu 09:58:00 AM 51.8954 -31.6596 264° West  Level FlightAware Approximate
Thu 09:59:00 AM 51.8824 -31.8428 264° West  Level FlightAware Approximate
Thu 10:00:00 AM 51.8691 -32.0260 263° West  Level FlightAware Approximate
Thu 10:01:00 AM 51.8555 -32.2090 263° West  Level FlightAware Approximate
Thu 10:02:00 AM 51.8416 -32.3920 263° West  Level FlightAware Approximate
Thu 10:03:00 AM 51.8274 -32.5748 263° West  Level FlightAware Approximate
Thu 10:04:00 AM 51.8130 -32.7575 263° West  Level FlightAware Approximate
Thu 10:05:00 AM 51.7983 -32.9401 263° West  Level FlightAware Approximate
Thu 10:06:00 AM 51.7833 -33.1225 263° West  Level FlightAware Approximate
Thu 10:07:00 AM 51.7680 -33.3049 262° West  Level FlightAware Approximate
Thu 10:08:00 AM 51.7524 -33.4871 262° West  Level FlightAware Approximate
Thu 10:09:00 AM 51.7366 -33.6692 262° West  Level FlightAware Approximate
Thu 10:10:00 AM 51.7205 -33.8511 262° West  Level FlightAware Approximate
Thu 10:11:00 AM 51.7040 -34.0330 262° West  Level FlightAware Approximate
Thu 10:12:00 AM 51.6874 -34.2147 262° West  Level FlightAware Approximate
Thu 10:13:00 AM 51.6704 -34.3962 261° West  Level FlightAware Approximate
Thu 10:14:00 AM 51.6531 -34.5776 261° West  Level FlightAware Approximate
Thu 10:15:00 AM 51.6356 -34.7589 261° West  Level FlightAware Approximate
Thu 10:16:00 AM 51.6178 -34.9401 261° West  Level FlightAware Approximate
Thu 10:17:00 AM 51.5997 -35.1211 261° West  Level FlightAware Approximate
Thu 10:18:00 AM 51.5813 -35.3019 261° West  Level FlightAware Approximate
Thu 10:19:00 AM 51.5627 -35.4826 261° West  Level FlightAware Approximate
Thu 10:20:00 AM 51.5438 -35.6632 261° West  Level FlightAware Approximate
Thu 10:21:00 AM 51.5246 -35.8436 260° West  Level FlightAware Approximate
Thu 10:22:00 AM 51.5051 -36.0239 260° West  Level FlightAware Approximate
Thu 10:23:00 AM 51.4854 -36.2040 260° West  Level FlightAware Approximate
Thu 10:24:00 AM 51.4654 -36.3839 260° West  Level FlightAware Approximate
Thu 10:25:00 AM 51.4450 -36.5637 260° West  Level FlightAware Approximate
Thu 10:26:00 AM 51.4245 -36.7433 260° West  Level FlightAware Approximate
Thu 10:27:00 AM 51.4036 -36.9228 260° West  Level FlightAware Approximate
Thu 10:28:00 AM 51.3825 -37.1021 259° West  Level FlightAware Approximate
Thu 10:29:00 AM 51.3611 -37.2812 259° West  Level FlightAware Approximate
Thu 10:30:00 AM 51.3394 -37.4602 259° West  Level FlightAware Approximate
Thu 10:31:00 AM 51.3175 -37.6390 259° West  Level FlightAware Approximate
Thu 10:32:00 AM 51.2953 -37.8176 259° West  Level FlightAware Approximate
Thu 10:33:00 AM 51.2728 -37.9960 259° West  Level FlightAware Approximate
Thu 10:34:00 AM 51.2500 -38.1743 259° West  Level FlightAware Approximate
Thu 10:35:00 AM 51.2270 -38.3524 258° West  Level FlightAware Approximate
Thu 10:36:00 AM 51.2037 -38.5303 258° West  Level FlightAware Approximate
Thu 10:37:00 AM 51.1802 -38.7080 258° West  Level FlightAware Approximate
Thu 10:38:00 AM 51.1563 -38.8856 258° West  Level FlightAware Approximate
Thu 10:39:00 AM 51.1322 -39.0629 258° West  Level FlightAware Approximate
Thu 10:40:00 AM 51.1079 -39.2401 258° West  Level FlightAware Approximate
Thu 10:41:00 AM 51.0832 -39.4171 258° West  Level FlightAware Approximate
Thu 10:42:00 AM 51.0583 -39.5939 257° West  Level FlightAware Approximate
Thu 10:43:00 AM 51.0331 -39.7705 257° West  Level FlightAware Approximate
Thu 10:44:00 AM 51.0077 -39.9469 257° West  Level FlightAware Approximate
Thu 10:45:00 AM 50.9807 -40.1227 256° West  Level FlightAware Approximate
Thu 10:46:00 AM 50.9530 -40.2980 256° West  Level FlightAware Approximate
Thu 10:47:00 AM 50.9249 -40.4731 256° West  Level FlightAware Approximate
Thu 10:48:00 AM 50.8966 -40.6480 256° West  Level FlightAware Approximate
Thu 10:49:00 AM 50.8681 -40.8227 256° West  Level FlightAware Approximate
Thu 10:50:00 AM 50.8393 -40.9972 255° West  Level FlightAware Approximate
Thu 10:51:00 AM 50.8102 -41.1714 255° West  Level FlightAware Approximate
Thu 10:52:00 AM 50.7809 -41.3455 255° West  Level FlightAware Approximate
Thu 10:53:00 AM 50.7513 -41.5193 255° West  Level FlightAware Approximate
Thu 10:54:00 AM 50.7215 -41.6926 255° West  Level FlightAware Approximate
Thu 10:55:00 AM 50.6914 -41.8656 255° West  Level FlightAware Approximate
Thu 10:56:00 AM 50.6611 -42.0384 255° West  Level FlightAware Approximate
Thu 10:57:00 AM 50.6306 -42.2110 254° West  Level FlightAware Approximate
Thu 10:58:00 AM 50.5998 -42.3834 254° West  Level FlightAware Approximate
Thu 10:59:00 AM 50.5687 -42.5555 254° West  Level FlightAware Approximate
Thu 11:00:00 AM 50.5389 -42.7281 255° West  Level FlightAware Approximate
Thu 11:01:00 AM 50.5089 -42.9005 255° West  Level FlightAware Approximate
Thu 11:02:00 AM 50.4787 -43.0727 255° West  Level FlightAware Approximate
Thu 11:03:00 AM 50.4482 -43.2446 255° West  Level FlightAware Approximate
Thu 11:04:00 AM 50.4175 -43.4164 254° West  Level FlightAware Approximate
Thu 11:05:00 AM 50.3865 -43.5879 254° West  Level FlightAware Approximate
Thu 11:06:00 AM 50.3552 -43.7592 254° West  Level FlightAware Approximate
Thu 11:07:00 AM 50.3237 -43.9302 254° West  Level FlightAware Approximate
Thu 11:08:00 AM 50.2920 -44.1011 254° West  Level FlightAware Approximate
Thu 11:09:00 AM 50.2600 -44.2717 254° West  Level FlightAware Approximate
Thu 11:10:00 AM 50.2278 -44.4420 254° West  Level FlightAware Approximate
Thu 11:11:00 AM 50.1953 -44.6122 253° West  Level FlightAware Approximate
Thu 11:12:00 AM 50.1625 -44.7821 253° West  Level FlightAware Approximate
Thu 11:13:00 AM 50.1296 -44.9518 253° West  Level FlightAware Approximate
Thu 11:14:00 AM 50.0963 -45.1212 253° West  Level FlightAware Approximate
Thu 11:15:00 AM 50.0628 -45.2904 253° West  Level FlightAware Approximate
Thu 11:16:00 AM 50.0291 -45.4594 253° West  Level FlightAware Approximate
Thu 11:17:00 AM 49.9952 -45.6281 253° West  Level FlightAware Approximate
Thu 11:18:00 AM 49.9609 -45.7966 253° West  Level FlightAware Approximate
Thu 11:19:00 AM 49.9265 -45.9649 252° West  Level FlightAware Approximate
Thu 11:20:00 AM 49.8918 -46.1329 252° West  Level FlightAware Approximate
Thu 11:21:00 AM 49.8568 -46.3007 252° West  Level FlightAware Approximate
Thu 11:22:00 AM 49.8212 -46.4680 252° West  Level FlightAware Approximate
Thu 11:23:00 AM 49.7852 -46.6349 252° West  Level FlightAware Approximate
Thu 11:24:00 AM 49.7490 -46.8017 251° West  Level FlightAware Approximate
Thu 11:25:00 AM 49.7125 -46.9682 251° West  Level FlightAware Approximate
Thu 11:26:00 AM 49.6758 -47.1344 251° West  Level FlightAware Approximate
Thu 11:27:00 AM 49.6388 -47.3004 251° West  Level FlightAware Approximate
Thu 11:28:00 AM 49.6016 -47.4661 251° West  Level FlightAware Approximate
Thu 11:29:00 AM 49.5642 -47.6316 251° West  Level FlightAware Approximate
Thu 11:30:00 AM 49.5265 -47.7968 251° West  Level FlightAware Approximate
Thu 11:31:00 AM 49.4886 -47.9618 251° West  Level FlightAware Approximate
Thu 11:32:00 AM 49.4505 -48.1265 250° West  Level FlightAware Approximate
Thu 11:33:00 AM 49.4121 -48.2909 250° West  Level FlightAware Approximate
Thu 11:34:00 AM 49.3735 -48.4551 250° West  Level FlightAware Approximate
Thu 11:35:00 AM 49.3346 -48.6191 250° West  Level FlightAware Approximate
Thu 11:36:00 AM 49.2956 -48.7828 250° West  Level FlightAware Approximate
Thu 11:37:00 AM 49.2563 -48.9462 250° West  Level FlightAware Approximate
Thu 11:38:00 AM 49.2168 -49.1093 250° West  Level FlightAware Approximate
Thu 11:39:00 AM 49.1770 -49.2722 250° West  Level FlightAware Approximate
Thu 11:40:00 AM 49.1370 -49.4349 249° West  Level FlightAware Approximate
Thu 11:41:00 AM 49.0968 -49.5973 249° West  Level FlightAware Approximate
Thu 11:42:00 AM 49.0564 -49.7594 249° West  Level FlightAware Approximate
Thu 11:43:00 AM 49.0157 -49.9212 249° West  Level FlightAware Approximate
Thu 11:44:00 AM 48.9806 -50.0849 251° West  Level FlightAware Approximate
Thu 11:45:00 AM 48.9432 -50.2476 251° West  Level FlightAware Approximate
Thu 11:46:00 AM 48.9057 -50.4099 251° West  Level FlightAware Approximate
Thu 11:47:00 AM 48.8679 -50.5720 251° West  Level FlightAware Approximate
Thu 11:48:00 AM 48.8298 -50.7339 250° West  Level FlightAware Approximate
Thu 11:49:00 AM 48.7915 -50.8955 250° West  Level FlightAware Approximate
Thu 11:50:00 AM 48.7535 -51.0572 251° West  Level FlightAware Approximate
Thu 11:50:53 AM 48.6650 -51.5380 251° West 451 519 36,000  Level FlightAware ADS-B
Thu 11:51:00 AM 48.7162 -51.2191 251° West  Level FlightAware Approximate
Thu 11:51:33 AM 48.6360 -51.6570 250° West 452 520 36,000  Level FlightAware ADS-B
Thu 11:52:18 AM 48.6050 -51.7880 250° West 454 522 36,000  Level FlightAware ADS-B
Thu 11:52:57 AM 48.5770 -51.9060 250° West 455 524 36,000  Level FlightAware ADS-B
Thu 11:53:53 AM 48.5360 -52.0720 250° West 455 524 36,000  Level FlightAware ADS-B
Thu 11:54:37 AM 48.5050 -52.1990 250° West 455 524 36,000  Level FlightAware ADS-B
Thu 11:55:33 AM 48.4650 -52.3610 250° West 455 524 36,000  Level FlightAware ADS-B
Thu 11:56:13 AM 48.4340 -52.4870 250° West 455 524 36,000  Level FlightAware ADS-B
Thu 11:56:57 AM 48.4010 -52.6190 249° West 455 524 36,000  Level FlightAware ADS-B
Thu 11:57:31 AM 48.3760 -52.7200 250° West 455 524 36,000  Level FlightAware ADS-B
Thu 11:58:11 AM 48.3470 -52.8350 249° West 456 525 36,000  Level FlightAware ADS-B
Thu 11:58:53 AM 48.3150 -52.9610 249° West 457 526 36,000  Level FlightAware ADS-B
Thu 11:59:31 AM 48.2870 -53.0730 249° West 458 527 36,000  Level FlightAware ADS-B
Thu 12:00:21 PM 48.2490 -53.2200 249° West 458 527 36,000  Level FlightAware ADS-B
Thu 12:00:59 PM 48.2190 -53.3350 249° West 459 528 36,000  Level FlightAware ADS-B
Thu 12:01:43 PM 48.1860 -53.4640 249° West 459 528 36,000  Level FlightAware ADS-B
Thu 12:02:23 PM 48.1550 -53.5820 249° West 460 529 36,000  Level FlightAware ADS-B
Thu 12:03:07 PM 48.1220 -53.7080 249° West 459 528 36,000  Level FlightAware ADS-B
Thu 12:03:47 PM 48.0900 -53.8290 248° West 458 527 36,000  Level FlightAware ADS-B
Thu 12:04:31 PM 48.0560 -53.9600 249° West 461 531 36,000  Level FlightAware ADS-B
Thu 12:05:15 PM 48.0210 -54.0890 248° West 461 531 36,000  Level FlightAware ADS-B
Thu 12:05:55 PM 47.9900 -54.2080 249° West 461 531 36,000  Level FlightAware ADS-B
Thu 12:06:31 PM 47.9610 -54.3150 248° West 462 532 36,000  Level FlightAware ADS-B
Thu 12:07:13 PM 47.9280 -54.4380 248° West 463 533 36,000  Level FlightAware ADS-B
Thu 12:07:54 PM 47.8960 -54.5550 248° West 462 532 36,000  Level FlightAware ADS-B
Thu 12:08:47 PM 47.8550 -54.7040 248° West 462 532 36,000  Level FlightAware ADS-B
Thu 12:09:29 PM 47.8200 -54.8360 248° West 462 532 36,000  Level FlightAware ADS-B
Thu 12:10:15 PM 47.7820 -54.9720 247° West 460 529 36,000  Level FlightAware ADS-B
Thu 12:10:55 PM 47.7500 -55.0870 248° West 459 528 36,000  Level FlightAware ADS-B
Thu 12:11:31 PM 47.7220 -55.1880 248° West 458 527 36,000  Level FlightAware ADS-B
Thu 12:12:15 PM 47.6850 -55.3210 248° West 459 528 36,000  Level FlightAware ADS-B
Thu 12:12:55 PM 47.6520 -55.4370 247° West 457 526 36,000  Level FlightAware ADS-B
Thu 12:13:29 PM 47.6240 -55.5350 247° West 456 525 36,000  Level FlightAware ADS-B
Thu 12:14:13 PM 47.5890 -55.6620 248° West 455 524 36,000  Level FlightAware ADS-B
Thu 12:14:53 PM 47.5560 -55.7770 247° West 455 524 36,000  Level FlightAware ADS-B
Thu 12:15:51 PM 47.5090 -55.9410 247° West 453 521 36,000  Level FlightAware ADS-B
Thu 12:16:27 PM 47.4800 -56.0400 247° West 453 521 36,000  Level FlightAware ADS-B
Thu 12:17:29 PM 47.4350 -56.1930 247° West 452 520 36,000  Level FlightAware ADS-B
Thu 12:18:05 PM 47.4090 -56.2790 246° West 452 520 36,000  Level FlightAware ADS-B
Thu 12:18:42 PM 47.3820 -56.3680 246° West 452 520 36,000  Level FlightAware ADS-B
Thu 12:19:42 PM 47.3390 -56.5120 246° West 452 520 36,000  Level FlightAware ADS-B
Thu 12:20:18 PM 47.3130 -56.5980 246° West 452 520 36,000  Level FlightAware ADS-B
Thu 12:21:04 PM 47.2500 -56.8280 248° West 455 524 36,000  Level FlightAware ADS-B
Thu 12:22:02 PM 47.2010 -56.9930 246° West 457 526 36,000  Level FlightAware ADS-B
Thu 12:22:43 PM 47.1670 -57.1060 246° West 457 526 36,000  Level FlightAware ADS-B
Thu 12:23:22 PM 47.1330 -57.2200 246° West 456 525 36,000  Level FlightAware ADS-B
Thu 12:24:21 PM 47.0860 -57.3760 246° West 456 525 36,000  Level FlightAware ADS-B
Thu 12:25:01 PM 47.0480 -57.4990 246° West 452 520 36,000  Level FlightAware ADS-B
Thu 12:25:45 PM 47.0130 -57.6150 246° West 448 516 36,000  Level FlightAware ADS-B
Thu 12:26:27 PM 46.9760 -57.7360 246° West 442 509 36,000  Level FlightAware ADS-B
Thu 12:27:05 PM 46.9450 -57.8370 246° West 438 504 36,000  Level FlightAware ADS-B
Thu 12:27:49 PM 46.9090 -57.9560 246° West 434 499 36,000  Level FlightAware ADS-B
Thu 12:28:33 PM 46.8730 -58.0720 246° West 430 495 36,000  Level FlightAware ADS-B
Thu 12:29:09 PM 46.8430 -58.1670 245° Southwest 426 490 36,000  Level FlightAware ADS-B
Thu 12:29:55 PM 46.8060 -58.2870 246° West 420 483 36,000  Level FlightAware ADS-B
Thu 12:30:37 PM 46.7720 -58.3930 245° Southwest 415 478 36,000  Level FlightAware ADS-B
Thu 12:31:17 PM 46.7400 -58.4960 246° West 411 473 36,000  Level FlightAware ADS-B
Thu 12:32:01 PM 46.7060 -58.6060 246° West 407 468 36,000  Level FlightAware ADS-B
Thu 12:32:41 PM 46.6750 -58.7030 245° Southwest 404 465 36,000  Level FlightAware ADS-B
Thu 12:33:25 PM 46.6400 -58.8120 245° Southwest 400 460 36,000  Level FlightAware ADS-B
Thu 12:34:09 PM 46.6060 -58.9200 245° Southwest 399 459 36,000  Level FlightAware ADS-B
Thu 12:34:51 PM 46.5740 -59.0190 245° Southwest 395 455 36,000  Level FlightAware ADS-B
Thu 12:35:31 PM 46.5430 -59.1170 245° Southwest 393 452 36,000  Level FlightAware ADS-B
Thu 12:36:15 PM 46.5090 -59.2200 244° Southwest 391 450 36,000  Level FlightAware ADS-B
Thu 12:36:55 PM 46.4790 -59.3160 246° West 389 448 36,000  Level FlightAware ADS-B
Thu 12:37:31 PM 46.4510 -59.4000 244° Southwest 388 447 36,000  Level FlightAware ADS-B
Thu 12:38:11 PM 46.4210 -59.4940 245° Southwest 389 448 36,000  Level FlightAware ADS-B
Thu 12:38:55 PM 46.3860 -59.5990 244° Southwest 390 449 36,000  Level FlightAware ADS-B
Thu 12:39:31 PM 46.3590 -59.6830 245° Southwest 390 449 36,000  Level FlightAware ADS-B
Thu 12:40:11 PM 46.3280 -59.7770 244° Southwest 392 451 36,000  Level FlightAware ADS-B
Thu 12:40:55 PM 46.2940 -59.8810 245° Southwest 394 453 36,000  Level FlightAware ADS-B
Thu 12:41:37 PM 46.2610 -59.9810 245° Southwest 395 455 36,000  Level FlightAware ADS-B
Thu 12:42:19 PM 46.2270 -60.0820 244° Southwest 398 458 36,000  Level FlightAware ADS-B
Thu 12:43:00 PM 46.1950 -60.1770 244° Southwest 399 459 36,000  Level FlightAware ADS-B
Thu 12:43:41 PM 46.1620 -60.2770 245° Southwest 400 460 36,000  Level FlightAware ADS-B
Thu 12:44:23 PM 46.1280 -60.3770 244° Southwest 401 461 36,000  Level FlightAware ADS-B
Thu 12:45:08 PM 46.0920 -60.4840 244° Southwest 401 461 36,000  Level FlightAware ADS-B
Thu 12:45:49 PM 46.0580 -60.5860 244° Southwest 402 463 36,000 593 Level FlightAware ADS-B
Thu 12:46:29 PM 46.0260 -60.6800 244° Southwest 402 463 36,800 1,143 Climbing FlightAware ADS-B
Thu 12:47:13 PM 45.9900 -60.7860 244° Southwest 404 465 37,600 857 Climbing FlightAware ADS-B
Thu 12:47:53 PM 45.9560 -60.8840 244° Southwest 409 471 38,000 293 Climbing FlightAware ADS-B
Thu 12:48:35 PM 45.9210 -60.9850 244° Southwest 409 471 38,000  Level FlightAware ADS-B
Thu 12:49:19 PM 45.8850 -61.0920 244° Southwest 409 471 38,000  Level FlightAware ADS-B
Thu 12:49:59 PM 45.8510 -61.1890 243° Southwest 410 472 38,000  Level FlightAware ADS-B
Thu 12:50:56 PM 45.8060 -61.3180 243° Southwest 411 473 38,000  Level FlightAware ADS-B
Thu 12:51:30 PM 45.7810 -61.3890 243° Southwest 411 473 38,000  Level FlightAware ADS-B
Thu 12:52:07 PM 45.7530 -61.4650 242° Southwest 411 473 38,000  Level FlightAware ADS-B
Thu 12:52:56 PM 45.7170 -61.5660 243° Southwest 411 473 38,000  Level FlightAware ADS-B
Thu 12:53:30 PM 45.6920 -61.6360 243° Southwest 411 473 38,000  Level FlightAware ADS-B
Thu 12:54:07 PM 45.6650 -61.7120 243° Southwest 411 473 38,000  Level FlightAware ADS-B
Thu 12:54:55 PM 45.6300 -61.8110 243° Southwest 411 473 38,000  Level FlightAware ADS-B
Thu 12:55:30 PM 45.6040 -61.8830 243° Southwest 411 473 38,000  Level FlightAware ADS-B
Thu 12:56:06 PM 45.5780 -61.9570 243° Southwest 411 473 38,000  Level FlightAware ADS-B
Thu 12:56:54 PM 45.5430 -62.0560 243° Southwest 411 473 38,000  Level FlightAware ADS-B
Thu 12:57:31 PM 45.5160 -62.1320 243° Southwest 411 473 38,000  Level FlightAware ADS-B
Thu 12:58:19 PM 45.4800 -62.2310 243° Southwest 411 473 38,000  Level FlightAware ADS-B
Thu 12:58:53 PM 45.4550 -62.3010 243° Southwest 411 473 38,000  Level FlightAware ADS-B
Thu 12:59:43 PM 45.4190 -62.4030 243° Southwest 411 473 38,000  Level FlightAware ADS-B
Thu 01:00:19 PM 45.3920 -62.4770 243° Southwest 411 473 38,000  Level FlightAware ADS-B
Thu 01:05:55 PM 45.0250 -63.4620 242° Southwest 412 474 38,000  Level FlightAware ADS-B
Thu 01:06:40 PM 44.9830 -63.5700 241° Southwest 414 476 38,000  Level FlightAware ADS-B
Thu 01:07:31 PM 44.9380 -63.6890 242° Southwest 415 478 38,000  Level FlightAware ADS-B
Thu 01:08:06 PM 44.9060 -63.7720 241° Southwest 414 476 38,000  Level FlightAware ADS-B
Thu 01:08:51 PM 44.8680 -63.8700 241° Southwest 413 475 38,000  Level FlightAware ADS-B
Thu 01:09:36 PM 44.8230 -63.9850 241° Southwest 415 478 38,000  Level FlightAware ADS-B
Thu 01:10:16 PM 44.7860 -64.0790 241° Southwest 416 479 38,000  Level FlightAware ADS-B
Thu 01:10:56 PM 44.7500 -64.1720 241° Southwest 417 480 38,000  Level FlightAware ADS-B
Thu 01:11:34 PM 44.7220 -64.2440 241° Southwest 418 481 38,000  Level FlightAware ADS-B
Thu 01:12:13 PM 44.6770 -64.3580 241° Southwest 418 481 38,000  Level FlightAware ADS-B
Thu 01:12:59 PM 44.6340 -64.4660 241° Southwest 418 481 38,000  Level FlightAware ADS-B
Thu 01:13:40 PM 44.5950 -64.5650 241° Southwest 419 482 38,000  Level FlightAware ADS-B
Thu 01:14:19 PM 44.5580 -64.6560 240° Southwest 418 481 38,000  Level FlightAware ADS-B
Thu 01:14:55 PM 44.5240 -64.7420 241° Southwest 418 481 38,000  Level FlightAware ADS-B
Thu 01:15:48 PM 44.4740 -64.8650 240° Southwest 419 482 38,000  Level FlightAware ADS-B
Thu 01:16:34 PM 44.4300 -64.9750 241° Southwest 418 481 38,000  Level FlightAware ADS-B
Thu 01:17:13 PM 44.3930 -65.0650 240° Southwest 418 481 38,000  Level FlightAware ADS-B
Thu 01:17:57 PM 44.3510 -65.1690 241° Southwest 418 481 38,000  Level FlightAware ADS-B
Thu 01:18:30 PM 44.3190 -65.2470 240° Southwest 417 480 38,000  Level FlightAware ADS-B
Thu 01:19:09 PM 44.2840 -65.3330 240° Southwest 418 481 38,000  Level FlightAware ADS-B
Thu 01:19:47 PM 44.2460 -65.4250 240° Southwest 418 481 38,000  Level FlightAware ADS-B
Thu 01:20:30 PM 44.2040 -65.5270 240° Southwest 418 481 38,000  Level FlightAware ADS-B
Thu 01:21:12 PM 44.1640 -65.6240 240° Southwest 418 481 38,000  Level FlightAware ADS-B
Thu 01:21:51 PM 44.1270 -65.7120 240° Southwest 419 482 38,000  Level FlightAware ADS-B
Thu 01:22:28 PM 44.0910 -65.7980 240° Southwest 419 482 38,000  Level FlightAware ADS-B
Thu 01:23:11 PM 44.0520 -65.8900 239° Southwest 421 484 38,000  Level FlightAware ADS-B
Thu 01:23:48 PM 44.0200 -65.9630 239° Southwest 421 484 38,000  Level FlightAware ADS-B
Thu 01:24:34 PM 43.9810 -66.0540 239° Southwest 421 484 38,000  Level FlightAware ADS-B
Thu 01:25:11 PM 43.9490 -66.1270 239° Southwest 421 484 38,000  Level FlightAware ADS-B
Thu 01:26:00 PM 43.9070 -66.2240 239° Southwest 421 484 38,000  Level FlightAware ADS-B
Thu 01:26:37 PM 43.8440 -66.3830 241° Southwest 425 489 38,000  Level FlightAware ADS-B
Thu 01:27:17 PM 43.8090 -66.4620 238° Southwest 425 489 38,000  Level FlightAware ADS-B
Thu 01:27:53 PM 43.7780 -66.5340 239° Southwest 425 489 38,000  Level FlightAware ADS-B
Thu 01:28:41 PM 43.7370 -66.6290 239° Southwest 425 489 38,000  Level FlightAware ADS-B
Thu 01:29:17 PM 43.7060 -66.7000 239° Southwest 425 489 38,000  Level FlightAware ADS-B
Thu 01:30:06 PM 43.6640 -66.7970 239° Southwest 425 489 38,000  Level FlightAware ADS-B
Thu 01:30:43 PM 43.6320 -66.8710 239° Southwest 425 489 38,000  Level FlightAware ADS-B
Thu 01:31:31 PM 43.5910 -66.9660 239° Southwest 425 489 38,000  Level FlightAware ADS-B
Thu 01:32:07 PM 43.5600 -67.0370 239° Southwest 425 489 38,000  Level FlightAware ADS-B
Thu 01:32:43 PM 43.5290 -67.1080 239° Southwest 425 489 38,000  Level FlightAware ADS-B
Thu 01:33:21 PM 43.4960 -67.1830 239° Southwest 425 489 38,000  Level FlightAware ADS-B
Thu 01:34:09 PM 43.4550 -67.2780 239° Southwest 425 489 38,000  Level FlightAware ADS-B
Thu 01:34:45 PM 43.4240 -67.3490 239° Southwest 425 489 38,000  Level FlightAware ADS-B
Thu 01:35:22 PM 43.3920 -67.4220 239° Southwest 425 489 38,000  Level FlightAware ADS-B
Thu 01:36:23 PM 43.3390 -67.5420 239° Southwest 425 489 38,000 -1,059 Level FlightAware ADS-B
Thu 01:38:12 PM 43.2650 -68.0750 259° West 427 491 35,000 -1,176 Descending FlightAware ADS-B
Thu 01:38:56 PM 43.2380 -68.1660 248° West 428 493 35,000  Level FlightAware ADS-B
Thu 01:39:45 PM 43.1980 -68.3030 248° West 432 497 35,000  Level FlightAware ADS-B
Thu 01:40:35 PM 43.1590 -68.4340 248° West 434 499 35,000  Level FlightAware ADS-B
Thu 01:41:15 PM 43.1300 -68.5320 248° West 434 499 35,000  Level FlightAware ADS-B
Thu 01:41:50 PM 43.1030 -68.6220 248° West 434 499 35,000  Level FlightAware ADS-B
Thu 01:42:40 PM 43.0660 -68.7450 248° West 431 496 35,000  Level FlightAware ADS-B
Thu 01:43:32 PM 43.0280 -68.8690 247° West 429 494 35,000  Level FlightAware ADS-B
Thu 01:44:15 PM 42.9920 -68.9930 248° West 426 490 35,000  Level FlightAware ADS-B
Thu 01:45:00 PM 42.9580 -69.1050 248° West 425 489 35,000  Level FlightAware ADS-B
Thu 01:45:40 PM 42.9280 -69.2030 247° West 424 488 35,000  Level FlightAware ADS-B
Thu 01:46:20 PM 42.8980 -69.3010 247° West 424 488 35,000  Level FlightAware ADS-B
Thu 01:47:05 PM 42.8640 -69.4110 247° West 423 487 35,000  Level FlightAware ADS-B
Thu 01:47:45 PM 42.8330 -69.5110 247° West 422 486 35,000  Level FlightAware ADS-B
Thu 01:48:25 PM 42.8030 -69.6080 247° West 422 486 35,000  Level FlightAware ADS-B
Thu 01:49:10 PM 42.7690 -69.7200 248° West 422 486 35,000  Level FlightAware ADS-B
Thu 01:49:50 PM 42.7390 -69.8150 247° West 421 484 35,000  Level FlightAware ADS-B
Thu 01:50:30 PM 42.7080 -69.9140 247° West 421 484 35,000  Level FlightAware ADS-B
Thu 01:51:15 PM 42.6750 -70.0230 248° West 420 483 35,000  Level FlightAware ADS-B
Thu 01:51:55 PM 42.6440 -70.1190 246° West 420 483 35,000 -847 Level FlightAware ADS-B
Thu 01:52:40 PM 42.6100 -70.2280 247° West 417 480 33,800 -2,400 Descending FlightAware ADS-B
Thu 01:53:20 PM 42.5790 -70.3250 247° West 428 493 31,600 -3,388 Descending FlightAware ADS-B
Thu 01:54:05 PM 42.5420 -70.4400 246° West 442 509 29,000 -2,471 Descending FlightAware ADS-B
Thu 01:54:45 PM 42.5110 -70.5390 247° West 423 487 28,100 -741 Descending FlightAware ADS-B
Thu 01:55:26 PM 42.4790 -70.6370 246° West 415 478 28,000 -71 Descending FlightAware ADS-B
Thu 01:56:10 PM 42.4450 -70.7420 246° West 416 479 28,000  Level FlightAware ADS-B
Thu 01:56:55 PM 42.4100 -70.8520 247° West 420 483 28,000 -450 Level FlightAware ADS-B
Thu 01:57:30 PM 42.3820 -70.9370 246° West 419 482 27,400 -1,200 Descending FlightAware ADS-B
Thu 01:58:20 PM 42.3600 -71.0640 257° West 421 484 26,300 -1,271 Descending FlightAware ADS-B
Thu 01:58:55 PM 42.3570 -71.1490 267° West 418 481 25,600 -1,725 Descending FlightAware ADS-B
Thu 01:59:40 PM 42.3520 -71.2710 267° West 415 478 24,000 -1,636 Descending FlightAware ADS-B
Thu 02:00:23 PM 42.3500 -71.3480 268° West 409 471 23,200 -809 Descending FlightAware ADS-B
Thu 02:01:09 PM 42.3450 -71.4820 267° West 400 460 22,800 -2,133 Descending FlightAware ADS-B
Thu 02:01:53 PM 42.3380 -71.6030 266° West 386 444 20,000 -2,561 Descending FlightAware ADS-B
Thu 02:02:31 PM 42.3190 -71.6920 254° West 386 444 19,300 -1,643 Descending FlightAware ADS-B
Thu 02:03:17 PM 42.2850 -71.7880 244° Southwest 379 436 17,700 -2,200 Descending FlightAware ADS-B
Thu 02:04:01 PM 42.2510 -71.8830 244° Southwest 370 426 16,000 -1,341 Descending FlightAware ADS-B
Thu 02:04:42 PM 42.2220 -71.9640 244° Southwest 367 422 15,800 -148 Descending FlightAware ADS-B
Thu 02:05:22 PM 42.1920 -72.0470 244° Southwest 372 428 15,800  Level FlightAware ADS-B
Thu 02:06:02 PM 42.1610 -72.1320 244° Southwest 372 428 15,800  Level FlightAware ADS-B
Thu 02:06:48 PM 42.1270 -72.2230 243° Southwest 371 427 15,800  Level FlightAware ADS-B
Thu 02:07:30 PM 42.0980 -72.3010 243° Southwest 369 425 15,800  Level FlightAware ADS-B
Thu 02:08:26 PM 42.0980 -72.3030 270° West 370 426 15,800  Level FlightAware ADS-B
Thu 02:09:37 PM 42.0510 -72.4270 243° Southwest 370 426 15,800  Level FlightAware ADS-B
Thu 02:10:25 PM 42.0190 -72.5100 243° Southwest 370 426 15,800  Level FlightAware ADS-B
Thu 02:11:01 PM 41.9950 -72.5730 243° Southwest 370 426 15,800  Level FlightAware ADS-B
Thu 02:11:52 PM 41.9610 -72.6620 243° Southwest 370 426 15,800  Level FlightAware ADS-B
Thu 02:14:26 PM 41.8340 -73.2100 253° West 373 429 15,800  Level FlightAware ADS-B
Thu 02:15:15 PM 41.8110 -73.3020 251° West 373 429 15,800 -932 Level FlightAware ADS-B
Thu 02:15:51 PM 41.7920 -73.3830 253° West 15,800 -1,394 Level FlightAware ADS-B
Thu 02:16:54 PM 41.7570 -73.5310 252° West 358 412 13,500 -1,673 Descending FlightAware ADS-B
Thu 02:17:35 PM 41.7380 -73.6070 252° West 355 409 12,900 -2,071 Descending FlightAware ADS-B
Thu 02:18:18 PM 41.7170 -73.6940 252° West 342 394 10,600 -2,514 Descending FlightAware ADS-B
Thu 02:18:49 PM 41.6998 -73.7656 252° West 332 382 9,800 -600 Descending FlightAware ADS-B
Thu 02:19:38 PM 41.6800 -73.8490 252° West 295 339 9,800  Level FlightAware ADS-B
Thu 02:19:52 PM 41.6725 -73.8798 252° West 273 314 9,800  Level FlightAware ADS-B
Thu 02:20:23 PM 41.6613 -73.9287 253° West 266 306 9,800  Level FlightAware ADS-B
Thu 02:20:54 PM 41.6510 -73.9730 253° West 266 306 9,800 -295 Level FlightAware ADS-B
Thu 02:21:24 PM 41.6340 -74.0130 240° Southwest 267 307 9,500 -571 Descending FlightAware ADS-B
Thu 02:21:36 PM 41.6240 -74.0320 235° Southwest 265 305 9,400 -667 Descending FlightAware ADS-B
Thu 02:22:09 PM 41.5995 -74.0801 236° Southwest 262 302 9,000 -701 Descending FlightAware ADS-B
Thu 02:22:53 PM 41.5686 -74.1395 235° Southwest 262 302 8,500 -600 Descending FlightAware ADS-B
Thu 02:23:09 PM 41.5580 -74.1600 235° Southwest 262 302 8,400 -590 Descending FlightAware ADS-B
Thu 02:23:54 PM 41.5280 -74.2180 235° Southwest 256 295 7,900 -417 Descending FlightAware ADS-B
Thu 02:24:21 PM 41.5120 -74.2480 235° Southwest 256 295 7,900 -194 Level FlightAware ADS-B
Thu 02:24:56 PM 41.4639 -74.2989 235° Southwest 263 303 7,700 -334 Descending Boston Center
Thu 02:30:38 PM 41.1610 -74.4770 235° Southwest 219 252 5,800 -336 Descending FlightAware ADS-B
Thu 02:30:53 PM 41.1458 -74.4748 174° South 222 255 5,700 -250 Descending FlightAware ADS-B
Thu 02:31:02 PM 41.1369 -74.4720 167° South 223 257 5,700  Level FlightAware ADS-B
Thu 02:31:06 PM 41.1333 -74.4700 157° South 222 255 5,700  Level FlightAware ADS-B
Thu 02:31:09 PM 41.1304 -74.4676 148° Southeast 221 254 5,700  Level FlightAware ADS-B
Thu 02:31:12 PM 41.1280 -74.4652 143° Southeast 220 253 5,700 286 Level FlightAware ADS-B
Thu 02:31:30 PM 41.1153 -74.4484 135° Southeast 220 253 5,800  Climbing FlightAware ADS-B
Thu 02:31:49 PM 41.1040 -74.4316 132° Southeast 193 222 5,700 -353 Descending FlightAware ADS-B
Thu 02:32:04 PM 41.0945 -74.4178 132° Southeast 189 217 5,600 -732 Descending FlightAware ADS-B
Thu 02:32:30 PM 41.0796 -74.3964 133° Southeast 186 214 5,200 -857 Descending FlightAware ADS-B
Thu 02:32:46 PM 41.0703 -74.3824 131° Southeast 185 213 5,000 -444 Descending FlightAware ADS-B
Thu 02:32:57 PM 41.0652 -74.3719 123° Southeast 187 215 5,000 -375 Level FlightAware ADS-B
Thu 02:33:18 PM 41.0602 -74.3488 106° East 187 215 4,800 -667 Descending FlightAware ADS-B
Thu 02:33:24 PM 41.0590 -74.3419 103° East 198 228 4,700 -273 Descending FlightAware ADS-B
Thu 02:33:40 PM 41.0557 -74.3225 103° East 199 229 4,700 -95 Level FlightAware ADS-B
Thu 02:34:27 PM 41.0460 -74.2680 103° East 196 226 4,600 -456 Descending FlightAware ADS-B
Thu 02:34:59 PM 41.0391 -74.2304 104° East 191 220 4,100 -840 Descending FlightAware ADS-B
Thu 02:35:17 PM 41.0357 -74.2096 102° East 194 223 3,900 -421 Descending FlightAware ADS-B
Thu 02:35:56 PM 41.0281 -74.1641 102° East 193 222 3,700 -92 Descending FlightAware ADS-B
Thu 02:36:22 PM 41.0188 -74.1375 115° Southeast 194 223 3,800  Climbing FlightAware ADS-B
Thu 02:36:41 PM 41.0080 -74.1222 133° Southeast 183 211 3,700  Descending FlightAware ADS-B
Thu 02:36:54 PM 41.0003 -74.1114 133° Southeast 185 213 3,800 -240 Climbing FlightAware ADS-B
Thu 02:37:06 PM 40.9929 -74.1013 134° Southeast 185 213 3,600 -857 Descending FlightAware ADS-B
Thu 02:37:22 PM 40.9834 -74.0880 133° Southeast 184 212 3,400 -727 Descending FlightAware ADS-B
Thu 02:37:39 PM 40.9740 -74.0748 133° Southeast 181 208 3,200 -1,000 Descending FlightAware ADS-B
Thu 02:37:58 PM 40.9625 -74.0594 135° Southeast 180 207 2,800 -1,071 Descending FlightAware ADS-B
Thu 02:38:07 PM 40.9561 -74.0549 152° Southeast 173 199 2,700 -429 Descending FlightAware ADS-B
Thu 02:38:12 PM 40.9527 -74.0539 167° South 174 200 2,700  Level FlightAware ADS-B
Thu 02:38:19 PM 40.9467 -74.0529 173° South 175 201 2,700  Level FlightAware ADS-B
Thu 02:38:35 PM 40.9344 -74.0512 174° South 174 200 2,700  Level FlightAware ADS-B
Thu 02:38:50 PM 40.9216 -74.0497 175° South 172 198 2,700  Level FlightAware ADS-B
Thu 02:39:02 PM 40.9129 -74.0486 175° South 169 194 2,700  Level FlightAware ADS-B
Thu 02:39:05 PM 40.9105 -74.0485 178° South 170 196 2,700  Level FlightAware ADS-B
Thu 02:39:09 PM 40.9074 -74.0487 183° South 171 197 2,700  Level FlightAware ADS-B
Thu 02:39:14 PM 40.9031 -74.0499 192° South 171 197 2,700  Level FlightAware ADS-B
Thu 02:39:21 PM 40.8980 -74.0520 197° South 173 199 2,700  Level FlightAware ADS-B
Thu 02:39:27 PM 40.8932 -74.0544 201° Southwest 173 199 2,700  Level FlightAware ADS-B
Thu 02:39:31 PM 40.8902 -74.0560 202° Southwest 172 198 2,700  Level FlightAware ADS-B
Thu 02:39:56 PM 40.8722 -74.0673 205° Southwest 173 199 2,700 146 Level FlightAware ADS-B
Thu 02:40:12 PM 40.8614 -74.0745 207° Southwest 170 196 2,800 -200 Climbing FlightAware ADS-B
Thu 02:40:26 PM 40.8515 -74.0810 206° Southwest 170 196 2,600 -720 Descending FlightAware ADS-B
Thu 02:40:37 PM 40.8436 -74.0860 206° Southwest 169 194 2,500 -857 Descending FlightAware ADS-B
Thu 02:41:15 PM 40.8170 -74.1031 206° Southwest 167 192 1,900 -960 Descending FlightAware ADS-B
Thu 02:41:27 PM 40.8082 -74.1087 206° Southwest 167 192 1,700 -923 Descending FlightAware ADS-B
Thu 02:41:41 PM 40.7986 -74.1148 206° Southwest 170 196 1,500 -750 Descending FlightAware ADS-B
Thu 02:41:51 PM 40.7919 -74.1190 205° Southwest 170 196 1,400 -600 Descending FlightAware ADS-B

Login

Don't have an account? Register now (free) for customized features, flight alerts, and more!